createdAt,value
2018-12-21T00:01:13.433Z,7.50
2018-12-21T00:03:46.265Z,8.40
2018-12-21T00:06:22.861Z,6.30
2018-12-21T00:08:55.054Z,9.40
2018-12-21T00:11:35.999Z,7.97
2018-12-21T00:19:23.415Z,8.10
2018-12-21T00:22:11.313Z,7.10
2018-12-21T00:24:51.673Z,7.03
2018-12-21T00:27:23.617Z,6.90
2018-12-21T00:30:10.591Z,8.23
2018-12-21T00:32:47.409Z,9.33
2018-12-21T00:35:27.703Z,12.70
2018-12-21T00:38:06.365Z,6.37
2018-12-21T00:40:45.010Z,12.47
2018-12-21T00:43:36.866Z,7.17
2018-12-21T00:46:16.204Z,8.17
2018-12-21T00:48:54.994Z,8.33
2018-12-21T00:51:30.321Z,7.60
2018-12-21T00:54:02.695Z,8.47
2018-12-21T00:56:37.188Z,8.33
2018-12-21T00:59:09.119Z,5.67
2018-12-21T01:01:40.778Z,7.27
2018-12-21T01:04:13.344Z,4.93
2018-12-21T01:06:48.512Z,8.60
2018-12-21T01:09:35.885Z,8.10
2018-12-21T01:12:10.961Z,7.53
2018-12-21T01:14:45.999Z,10.53
2018-12-21T01:17:20.002Z,8.40
2018-12-21T01:19:51.830Z,7.93
2018-12-21T01:27:52.230Z,6.10
2018-12-21T01:30:26.918Z,7.57
2018-12-21T01:33:05.352Z,8.60
2018-12-21T01:35:41.659Z,8.40
2018-12-21T01:38:13.746Z,8.03
2018-12-21T01:40:49.919Z,9.57
2018-12-21T01:43:24.313Z,9.87
2018-12-21T01:45:55.949Z,5.40
2018-12-21T01:48:34.577Z,7.40
2018-12-21T01:51:13.122Z,9.17
2018-12-21T01:53:47.486Z,7.67
2018-12-21T01:56:41.088Z,6.37
2018-12-21T01:59:28.036Z,7.03
2018-12-21T02:01:59.475Z,7.60
2018-12-21T02:04:34.804Z,9.70
2018-12-21T02:07:09.498Z,12.53
2018-12-21T02:09:51.587Z,6.93
2018-12-21T02:15:17.298Z,6.10
2018-12-21T02:17:48.159Z,7.83
2018-12-21T02:20:33.266Z,5.83
2018-12-21T02:23:15.960Z,8.90
2018-12-21T02:26:00.553Z,9.03
2018-12-21T02:28:46.571Z,11.13
2018-12-21T02:31:33.490Z,4.90
2018-12-21T02:34:13.938Z,8.67
2018-12-21T02:37:06.145Z,8.23
2018-12-21T02:42:57.042Z,4.63
2018-12-21T02:45:40.984Z,7.50
2018-12-21T02:48:15.333Z,6.87
2018-12-21T02:50:55.230Z,10.17
2018-12-21T02:53:36.247Z,6.67
2018-12-21T02:56:20.687Z,6.53
2018-12-21T02:58:55.490Z,6.93
2018-12-21T03:04:39.457Z,8.70
2018-12-21T03:07:11.928Z,3.83
2018-12-21T03:09:46.079Z,6.00
2018-12-21T03:12:18.250Z,4.50
2018-12-21T03:14:54.760Z,4.10
2018-12-21T03:17:32.821Z,10.70
2018-12-21T03:20:17.871Z,10.33
2018-12-21T03:23:01.599Z,6.53
2018-12-21T03:25:33.701Z,5.93
2018-12-21T03:28:09.697Z,7.70
2018-12-21T03:30:41.560Z,8.63
2018-12-21T03:36:10.136Z,6.57
2018-12-21T03:38:45.360Z,7.33
2018-12-21T03:41:17.801Z,6.20
2018-12-21T03:43:49.499Z,6.03
2018-12-21T03:46:24.867Z,4.40
2018-12-21T03:48:56.701Z,7.07
2018-12-21T03:51:37.095Z,5.47
2018-12-21T03:54:11.820Z,6.50
2018-12-21T03:56:44.076Z,9.00
2018-12-21T03:59:17.928Z,6.90
2018-12-21T04:01:53.164Z,6.07
2018-12-21T04:04:25.654Z,7.10
2018-12-21T04:06:57.945Z,5.47
2018-12-21T04:09:29.941Z,4.30
2018-12-21T04:12:05.194Z,4.80
2018-12-21T04:14:36.937Z,5.13
2018-12-21T04:17:09.493Z,5.07
2018-12-21T04:19:44.235Z,3.63
2018-12-21T04:22:18.298Z,4.77
2018-12-21T04:24:50.572Z,4.73
2018-12-21T04:27:22.948Z,2.87
2018-12-21T04:29:55.682Z,2.93
2018-12-21T04:32:31.032Z,4.27
2018-12-21T04:35:03.240Z,5.50
2018-12-21T04:37:41.373Z,3.70
2018-12-21T04:40:16.478Z,5.17
2018-12-21T04:42:48.449Z,4.97
2018-12-21T04:45:20.859Z,4.33
2018-12-21T04:47:55.501Z,5.73
2018-12-21T04:50:27.387Z,3.90
2018-12-21T04:52:59.797Z,5.17
2018-12-21T04:55:32.145Z,6.40
2018-12-21T04:58:03.860Z,4.93
2018-12-21T05:00:36.149Z,4.77
2018-12-21T05:03:08.404Z,7.07
2018-12-21T05:05:41.207Z,3.20
2018-12-21T05:08:15.496Z,8.20
2018-12-21T05:10:47.358Z,3.87
2018-12-21T05:13:21.251Z,4.30
2018-12-21T05:15:53.135Z,4.37
2018-12-21T05:18:25.218Z,2.83
2018-12-21T05:20:59.186Z,3.97
2018-12-21T05:23:31.149Z,3.43
2018-12-21T05:26:02.724Z,3.50
2018-12-21T05:28:36.946Z,4.27
2018-12-21T05:31:08.652Z,5.00
2018-12-21T05:33:40.139Z,3.63
2018-12-21T05:36:14.335Z,2.77
2018-12-21T05:38:46.306Z,2.23
2018-12-21T05:41:19.847Z,2.90
2018-12-21T05:43:51.869Z,3.00
2018-12-21T05:46:23.365Z,3.17
2018-12-21T05:48:58.211Z,4.13
2018-12-21T05:51:30.125Z,3.27
2018-12-21T05:54:15.108Z,2.77
2018-12-21T05:56:49.142Z,3.13
2018-12-21T05:59:21.002Z,3.73
2018-12-21T06:01:53.446Z,3.60
2018-12-21T06:04:24.939Z,4.27
2018-12-21T06:07:05.337Z,3.00
2018-12-21T06:09:38.679Z,3.47
2018-12-21T06:12:17.206Z,3.77
2018-12-21T06:14:51.498Z,2.83
2018-12-21T06:17:25.858Z,3.60
2018-12-21T06:20:01.007Z,3.27
2018-12-21T06:22:33.708Z,3.17
2018-12-21T06:25:06.467Z,5.67
2018-12-21T06:27:41.284Z,3.60
2018-12-21T06:30:14.502Z,4.17
2018-12-21T06:32:47.136Z,2.87
2018-12-21T06:35:22.076Z,2.70
2018-12-21T06:40:35.852Z,3.17
2018-12-21T06:43:14.568Z,4.47
2018-12-21T06:45:49.835Z,4.17
2018-12-21T06:48:22.831Z,2.20
2018-12-21T06:51:14.243Z,3.07
2018-12-21T06:56:38.414Z,2.47
2018-12-21T06:59:21.566Z,3.03
2018-12-21T07:04:59.615Z,2.37
2018-12-21T07:07:41.889Z,2.40
2018-12-21T07:13:02.180Z,3.20
2018-12-21T07:15:37.129Z,4.10
2018-12-21T07:18:11.685Z,3.33
2018-12-21T07:20:51.633Z,2.77
2018-12-21T07:26:18.464Z,2.10
2018-12-21T07:29:04.311Z,3.87
2018-12-21T07:31:42.866Z,2.00
2018-12-21T07:34:16.952Z,2.33
2018-12-21T07:36:52.529Z,4.43
2018-12-21T07:39:28.297Z,4.50
2018-12-21T07:42:01.024Z,3.50
2018-12-21T07:44:33.314Z,2.90
2018-12-21T07:47:08.440Z,4.67
2018-12-21T07:49:40.936Z,3.53
2018-12-21T07:52:15.426Z,4.20
2018-12-21T07:54:47.520Z,4.13
2018-12-21T07:57:20.061Z,3.00
2018-12-21T07:59:52.229Z,2.40
2018-12-21T08:02:26.970Z,2.97
2018-12-21T08:04:59.874Z,2.27
2018-12-21T08:07:33.906Z,2.40
2018-12-21T08:10:13.510Z,3.23
2018-12-21T08:12:47.437Z,1.57
2018-12-21T08:15:21.791Z,4.10
2018-12-21T08:17:56.265Z,1.50
2018-12-21T08:20:31.018Z,1.80
2018-12-21T08:23:03.157Z,1.87
2018-12-21T08:25:34.985Z,2.23
2018-12-21T08:28:07.228Z,2.23
2018-12-21T08:30:42.182Z,5.93
2018-12-21T08:33:14.128Z,4.90
2018-12-21T08:35:46.139Z,3.30
2018-12-21T08:38:20.045Z,1.73
2018-12-21T08:40:51.783Z,2.30
2018-12-21T08:43:24.233Z,4.80
2018-12-21T08:45:59.335Z,4.47
2018-12-21T08:48:31.845Z,2.90
2018-12-21T08:51:04.328Z,3.10
2018-12-21T08:53:39.054Z,2.60
2018-12-21T08:56:11.045Z,2.03
2018-12-21T08:58:43.365Z,2.00
2018-12-21T09:01:13.673Z,2.27
2018-12-21T09:03:45.958Z,2.10
2018-12-21T09:06:18.678Z,2.83
2018-12-21T09:08:50.455Z,2.87
2018-12-21T09:11:28.254Z,2.77
2018-12-21T09:14:00.631Z,3.30
2018-12-21T09:16:32.516Z,3.30
2018-12-21T09:19:04.426Z,3.10
2018-12-21T09:21:36.504Z,3.37
2018-12-21T09:24:08.905Z,2.97
2018-12-21T09:26:41.022Z,3.10
2018-12-21T09:29:13.359Z,3.53
2018-12-21T09:31:48.528Z,4.93
2018-12-21T09:34:20.370Z,4.07
2018-12-21T09:36:54.504Z,3.30
2018-12-21T09:39:26.517Z,3.07
2018-12-21T09:41:58.111Z,2.23
2018-12-21T09:44:30.543Z,2.27
2018-12-21T09:47:02.969Z,2.97
2018-12-21T09:49:34.460Z,2.97
2018-12-21T09:52:09.348Z,2.30
2018-12-21T09:54:40.890Z,5.13
2018-12-21T09:57:13.303Z,3.20
2018-12-21T09:59:47.527Z,4.53
2018-12-21T10:02:26.195Z,2.60
2018-12-21T10:04:57.711Z,2.40
2018-12-21T10:07:32.935Z,2.97
2018-12-21T10:10:05.088Z,3.00
2018-12-21T10:12:37.225Z,2.77
2018-12-21T10:15:10.414Z,2.67
2018-12-21T10:17:42.780Z,2.43
2018-12-21T10:20:14.778Z,2.73
2018-12-21T10:22:46.657Z,3.70
2018-12-21T10:25:18.825Z,7.30
2018-12-21T10:27:51.707Z,16.07
2018-12-21T10:30:25.824Z,12.53
2018-12-21T10:32:59.936Z,9.97
2018-12-21T10:35:32.006Z,5.83
2018-12-21T10:38:04.522Z,3.80
2018-12-21T10:40:36.586Z,3.93
2018-12-21T10:43:10.072Z,3.30
2018-12-21T10:45:42.503Z,4.73
2018-12-21T10:48:22.026Z,7.80
2018-12-21T10:50:55.720Z,6.20
2018-12-21T10:53:28.033Z,6.00
2018-12-21T10:56:00.662Z,5.00
2018-12-21T10:58:35.659Z,3.80
2018-12-21T11:01:08.363Z,6.13
2018-12-21T11:03:49.331Z,6.50
2018-12-21T11:06:23.967Z,8.37
2018-12-21T11:08:56.299Z,7.13
2018-12-21T11:11:28.521Z,9.83
2018-12-21T11:14:00.935Z,8.40
2018-12-21T11:16:33.319Z,7.27
2018-12-21T11:19:05.495Z,7.60
2018-12-21T11:21:38.167Z,7.63
2018-12-21T11:24:10.593Z,9.13
2018-12-21T11:26:45.513Z,9.97
2018-12-21T11:29:19.716Z,7.67
2018-12-21T11:31:51.876Z,8.80
2018-12-21T11:34:23.961Z,7.47
2018-12-21T11:36:56.191Z,9.37
2018-12-21T11:39:28.557Z,10.07
2018-12-21T11:42:00.858Z,9.60
2018-12-21T11:44:37.935Z,7.57
2018-12-21T11:47:14.671Z,8.87
2018-12-21T11:49:46.493Z,7.77
2018-12-21T11:52:18.875Z,7.67
2018-12-21T11:54:51.349Z,4.87
2018-12-21T11:57:23.339Z,7.67
2018-12-21T11:59:56.027Z,6.80
2018-12-21T12:02:28.341Z,8.03
2018-12-21T12:05:03.302Z,8.80
2018-12-21T12:07:40.121Z,10.37
2018-12-21T12:10:12.689Z,9.50
2018-12-21T12:12:44.493Z,11.97
2018-12-21T12:15:18.590Z,11.03
2018-12-21T12:17:54.741Z,8.90
2018-12-21T12:20:26.545Z,12.00
2018-12-21T12:23:01.401Z,8.07
2018-12-21T12:25:33.220Z,7.93
2018-12-21T12:28:06.634Z,9.57
2018-12-21T12:30:39.248Z,9.70
2018-12-21T12:33:11.978Z,9.57
2018-12-21T12:35:44.437Z,10.47
2018-12-21T12:38:16.328Z,10.50
2018-12-21T12:40:48.680Z,10.33
2018-12-21T12:43:21.894Z,8.17
2018-12-21T12:45:53.464Z,7.17
2018-12-21T12:48:25.104Z,9.40
2018-12-21T12:50:57.426Z,10.53
2018-12-21T12:53:29.718Z,7.70
2018-12-21T12:56:05.322Z,10.53
2018-12-21T12:58:35.208Z,10.20
2018-12-21T13:01:07.224Z,7.37
2018-12-21T13:03:39.714Z,9.53
2018-12-21T13:06:11.890Z,9.10
2018-12-21T13:08:44.340Z,10.60
2018-12-21T13:11:16.235Z,9.77
2018-12-21T13:13:48.217Z,9.00
2018-12-21T13:16:20.171Z,8.30
2018-12-21T13:18:53.826Z,14.87
2018-12-21T13:21:28.830Z,11.47
2018-12-21T13:24:03.480Z,9.07
2018-12-21T13:26:35.341Z,11.43
2018-12-21T13:29:07.158Z,11.47
2018-12-21T13:31:41.490Z,9.00
2018-12-21T13:34:19.829Z,6.33
2018-12-21T13:36:54.537Z,6.97
2018-12-21T13:39:30.086Z,12.77
2018-12-21T13:42:02.113Z,7.97
2018-12-21T13:44:36.263Z,14.60
2018-12-21T13:47:08.174Z,10.27
2018-12-21T13:49:42.883Z,10.80
2018-12-21T13:52:14.712Z,14.90
2018-12-21T13:54:47.292Z,11.77
2018-12-21T13:57:20.695Z,13.27
2018-12-21T13:59:54.833Z,13.37
2018-12-21T14:02:28.674Z,15.93
2018-12-21T14:05:13.749Z,13.97
2018-12-21T14:07:48.767Z,12.53
2018-12-21T14:10:23.484Z,10.70
2018-12-21T14:12:56.221Z,11.60
2018-12-21T14:15:28.519Z,17.13
2018-12-21T14:18:06.538Z,15.43
2018-12-21T14:20:39.037Z,16.87
2018-12-21T14:23:11.044Z,10.70
2018-12-21T14:25:46.269Z,11.07
2018-12-21T14:28:19.742Z,16.33
2018-12-21T14:30:54.986Z,14.63
2018-12-21T14:33:27.514Z,15.60
2018-12-21T14:36:00.258Z,15.10
2018-12-21T14:38:39.315Z,11.80
2018-12-21T14:41:17.334Z,16.53
2018-12-21T14:43:51.675Z,11.83
2018-12-21T14:52:19.160Z,13.57
2018-12-21T14:54:54.191Z,16.17
2018-12-21T14:57:29.940Z,14.33
2018-12-21T15:00:02.137Z,23.90
2018-12-21T15:02:35.302Z,15.30
2018-12-21T15:05:10.957Z,17.67
2018-12-21T15:07:44.453Z,15.20
2018-12-21T15:10:17.611Z,12.87
2018-12-21T15:12:49.992Z,15.07
2018-12-21T15:15:23.060Z,15.17
2018-12-21T15:17:56.013Z,17.93
2018-12-21T15:20:30.017Z,18.10
2018-12-21T15:23:06.059Z,19.20
2018-12-21T15:25:46.034Z,12.20
2018-12-21T15:28:24.196Z,12.03
2018-12-21T15:36:55.298Z,14.27
2018-12-21T15:39:33.318Z,20.67
2018-12-21T15:42:15.098Z,18.17
2018-12-21T15:44:56.424Z,18.27
2018-12-21T15:50:36.022Z,13.93
2018-12-21T15:53:18.965Z,19.33
2018-12-21T15:55:54.855Z,14.97
2018-12-21T16:01:26.566Z,16.57
2018-12-21T16:04:07.240Z,17.80
2018-12-21T16:06:40.686Z,20.53
2018-12-21T16:12:09.354Z,14.70
2018-12-21T16:14:51.183Z,15.60
2018-12-21T16:17:39.328Z,13.20
2018-12-21T16:22:54.054Z,16.13
2018-12-21T16:25:32.635Z,14.37
2018-12-21T16:28:08.682Z,20.57
2018-12-21T16:30:56.706Z,14.63
2018-12-21T16:33:36.816Z,20.07
2018-12-21T16:36:11.405Z,12.73
2018-12-21T16:38:48.887Z,17.20
2018-12-21T16:41:25.947Z,17.67
2018-12-21T16:44:04.545Z,15.27
2018-12-21T16:46:37.789Z,17.03
2018-12-21T16:49:16.852Z,20.90
2018-12-21T16:57:28.619Z,21.10
2018-12-21T17:00:28.297Z,22.73
2018-12-21T17:03:03.218Z,21.80
2018-12-21T17:05:48.082Z,14.83
2018-12-21T17:08:24.124Z,18.93
2018-12-21T17:10:58.871Z,15.77
2018-12-21T17:13:46.200Z,16.50
2018-12-21T17:16:20.118Z,25.57
2018-12-21T17:18:58.254Z,22.30
2018-12-21T17:21:44.450Z,14.90
2018-12-21T17:24:30.377Z,14.37
2018-12-21T17:27:15.629Z,18.53
2018-12-21T17:29:51.365Z,19.13
2018-12-21T17:32:23.482Z,19.07
2018-12-21T17:35:10.863Z,18.10
2018-12-21T17:37:55.983Z,20.30
2018-12-21T17:40:32.997Z,23.53
2018-12-21T17:46:10.832Z,21.93
2018-12-21T17:48:47.071Z,19.87
2018-12-21T17:51:25.169Z,32.20
2018-12-21T17:54:01.554Z,22.00
2018-12-21T17:56:37.122Z,23.03
2018-12-21T17:59:24.439Z,24.10
2018-12-21T18:01:56.214Z,26.23
2018-12-21T18:04:30.161Z,21.50
2018-12-21T18:07:04.561Z,15.97
2018-12-21T18:09:37.990Z,27.07
2018-12-21T18:12:10.175Z,23.37
2018-12-21T18:14:48.968Z,22.03
2018-12-21T18:17:28.208Z,19.60
2018-12-21T18:20:03.781Z,19.30
2018-12-21T18:22:52.276Z,18.53
2018-12-21T18:25:27.576Z,22.10
2018-12-21T18:28:10.517Z,16.83
2018-12-21T18:30:46.618Z,22.13
2018-12-21T18:36:40.138Z,22.67
2018-12-21T18:39:15.285Z,28.90
2018-12-21T18:41:54.935Z,24.90
2018-12-21T18:47:44.750Z,23.50
2018-12-21T18:50:19.014Z,26.50
2018-12-21T18:52:48.900Z,16.10
2018-12-21T18:55:29.553Z,21.70
2018-12-21T18:58:04.515Z,23.57
2018-12-21T19:00:44.814Z,20.37
2018-12-21T19:03:21.435Z,24.17
2018-12-21T19:06:05.805Z,23.37
2018-12-21T19:08:42.559Z,19.63
2018-12-21T19:11:20.014Z,25.50
2018-12-21T19:16:56.441Z,16.93
2018-12-21T19:19:37.941Z,17.10
2018-12-21T19:22:10.057Z,23.87
2018-12-21T19:24:42.228Z,14.07
2018-12-21T19:27:15.499Z,18.07
2018-12-21T19:29:48.213Z,27.93
2018-12-21T19:32:20.063Z,22.30
2018-12-21T19:34:54.312Z,20.47
2018-12-21T19:37:31.243Z,25.73
2018-12-21T19:40:06.630Z,20.33
2018-12-21T19:42:43.495Z,23.70
2018-12-21T19:45:16.641Z,27.93
2018-12-21T19:47:51.476Z,23.33
2018-12-21T19:50:23.077Z,21.93
2018-12-21T19:52:55.123Z,20.43
2018-12-21T19:59:47.547Z,21.43
2018-12-21T20:02:21.598Z,23.97
2018-12-21T20:04:53.720Z,25.47
2018-12-21T20:07:28.590Z,26.50
2018-12-21T20:10:02.724Z,25.90
2018-12-21T20:12:47.438Z,21.47
2018-12-21T20:15:25.286Z,18.73
2018-12-21T20:17:57.060Z,17.97
2018-12-21T20:20:38.227Z,23.70
2018-12-21T20:23:11.561Z,29.70
2018-12-21T20:25:44.982Z,23.87
2018-12-21T20:28:29.900Z,24.67
2018-12-21T20:31:10.095Z,28.27
2018-12-21T20:33:43.293Z,26.77
2018-12-21T20:36:27.843Z,24.13
2018-12-21T20:39:05.564Z,18.63
2018-12-21T20:41:43.433Z,25.97
2018-12-21T20:44:18.125Z,24.80
2018-12-21T20:49:57.269Z,19.53
2018-12-21T20:52:45.802Z,27.23
2018-12-21T20:55:24.772Z,26.60
2018-12-21T20:58:05.632Z,22.47
2018-12-21T21:00:44.175Z,25.17
2018-12-21T21:06:14.450Z,23.47
2018-12-21T21:09:03.170Z,20.23
2018-12-21T21:11:45.116Z,27.57
2018-12-21T21:17:28.620Z,21.53
2018-12-21T21:20:09.618Z,25.30
2018-12-21T21:22:46.987Z,21.50
2018-12-21T21:28:34.891Z,21.07
2018-12-21T21:31:11.627Z,27.50
2018-12-21T21:33:52.933Z,19.40
2018-12-21T21:36:28.330Z,24.53
2018-12-21T21:39:07.202Z,22.40
2018-12-21T21:41:42.837Z,27.90
2018-12-21T21:44:17.361Z,23.27
2018-12-21T21:47:02.839Z,24.70
2018-12-21T21:52:31.435Z,24.93
2018-12-21T21:55:04.853Z,23.07
2018-12-21T21:57:39.660Z,27.10
2018-12-21T22:00:22.909Z,26.13
2018-12-21T22:03:54.811Z,23.37
2018-12-21T22:06:36.025Z,25.13
2018-12-21T22:09:15.454Z,21.93
2018-12-21T22:11:52.963Z,22.30
2018-12-21T22:14:28.968Z,24.17
2018-12-21T22:17:03.770Z,20.83
2018-12-21T22:19:35.905Z,24.80
2018-12-21T22:22:08.692Z,27.43
2018-12-21T22:24:43.791Z,24.50
2018-12-21T22:27:20.214Z,21.40
2018-12-21T22:30:08.845Z,34.17
2018-12-21T22:32:43.893Z,23.00
2018-12-21T22:35:22.057Z,25.60
2018-12-21T22:37:58.021Z,19.80
2018-12-21T22:40:38.744Z,25.30
2018-12-21T22:43:24.230Z,21.97
2018-12-21T22:49:16.738Z,28.13
2018-12-21T22:54:56.357Z,24.80
2018-12-21T23:00:37.519Z,16.97
2018-12-21T23:03:17.121Z,21.47
2018-12-21T23:05:52.053Z,20.30
2018-12-21T23:08:32.343Z,24.23
2018-12-21T23:11:21.865Z,24.87
2018-12-21T23:14:02.283Z,28.90
2018-12-21T23:19:33.143Z,24.10
2018-12-21T23:25:14.761Z,29.47
2018-12-21T23:28:04.917Z,22.10
2018-12-21T23:33:44.722Z,24.70
2018-12-21T23:36:26.088Z,17.93
2018-12-21T23:39:16.614Z,21.53
2018-12-21T23:44:51.480Z,23.33
2018-12-21T23:47:35.554Z,22.93
2018-12-21T23:52:56.615Z,20.03
2018-12-21T23:55:41.162Z,17.57
2018-12-21T23:58:23.163Z,22.60
